Time;durP1;ratioP1;P1;durP2;ratioP2;P2;SDS_P1;SDS_P2;PMS_P1;PMS_P2;Temp;Humidity;BMP_temperature;BMP_pressure;BME280_temperature;BME280_humidity;BME280_pressure;Samples;Min_cycle;Max_cycle;Signal;HPM_P1;HPM_P2
2023/10/24 00:01:27;;;;;;;15.48;9.90;;;11.40;99.90;;;11.42;100.00;99700.78;5034543;28;20049;-84
2023/10/24 00:03:53;;;;;;;14.97;11.00;;;11.40;99.90;;;11.41;100.00;99693.66;5029943;28;20026;-84
2023/10/24 00:06:19;;;;;;;14.25;10.65;;;11.40;99.90;;;11.40;100.00;99682.97;5042112;28;20313;-84
2023/10/24 00:08:44;;;;;;;16.25;10.15;;;11.40;99.90;;;11.38;100.00;99675.03;5035376;28;20045;-83
2023/10/24 00:11:10;;;;;;;19.02;11.10;;;11.30;99.90;;;11.39;100.00;99670.38;5024611;28;20072;-84
2023/10/24 00:13:36;;;;;;;15.55;11.30;;;11.30;99.90;;;11.32;100.00;99660.44;5023388;28;20048;-84
2023/10/24 00:16:02;;;;;;;15.65;11.20;;;11.30;99.90;;;11.30;100.00;99659.88;5026024;28;20085;-84
2023/10/24 00:18:28;;;;;;;14.57;11.63;;;11.30;99.90;;;11.27;100.00;99659.53;5050329;28;20033;-84
2023/10/24 00:20:54;;;;;;;16.75;11.52;;;11.30;99.90;;;11.21;100.00;99632.13;5024002;28;20107;-85
2023/10/24 00:23:20;;;;;;;17.15;11.80;;;11.30;99.90;;;11.22;100.00;99627.53;5050571;28;20034;-84
2023/10/24 00:25:46;;;;;;;17.08;11.98;;;11.30;99.90;;;11.20;100.00;99618.75;5030978;28;20529;-85
2023/10/24 00:28:13;;;;;;;17.25;11.63;;;11.30;99.90;;;11.18;100.00;99604.53;5066371;28;20066;-86
2023/10/24 00:30:39;;;;;;;19.92;13.02;;;11.30;99.90;;;11.19;100.00;99584.34;5066805;28;20052;-87
2023/10/24 00:33:05;;;;;;;19.08;12.05;;;11.20;99.90;;;11.19;100.00;99576.97;5046398;28;20052;-88
2023/10/24 00:35:33;;;;;;;20.15;12.77;;;11.30;99.90;;;11.16;100.00;99561.06;5044492;28;20028;-88
2023/10/24 00:37:59;;;;;;;20.05;13.00;;;11.30;99.90;;;11.11;100.00;99547.34;5043516;28;20022;-88
2023/10/24 00:40:25;;;;;;;21.55;13.80;;;11.30;99.90;;;11.13;100.00;99542.47;5056797;28;20045;-88
2023/10/24 00:42:51;;;;;;;18.80;13.27;;;11.30;99.90;;;11.11;100.00;99533.69;5041044;28;20042;-88
2023/10/24 00:45:18;;;;;;;19.92;13.35;;;11.30;99.90;;;11.17;100.00;99520.97;5055808;28;20027;-88
2023/10/24 00:47:44;;;;;;;19.13;13.32;;;11.30;99.90;;;11.18;100.00;99517.97;5056536;28;20052;-88
2023/10/24 00:50:12;;;;;;;20.88;13.60;;;11.30;99.90;;;11.20;100.00;99520.47;5040174;28;20018;-87
2023/10/24 00:52:45;;;;;;;20.50;13.05;;;11.30;99.90;;;11.14;100.00;99500.44;5058255;28;20038;-86
2023/10/24 00:55:13;;;;;;;21.33;13.25;;;11.30;99.90;;;11.20;100.00;99507.63;5058244;28;20055;-88
2023/10/24 00:57:40;;;;;;;19.00;13.15;;;11.30;99.90;;;11.21;100.00;99500.28;5049792;28;20037;-87
2023/10/24 01:00:08;;;;;;;19.15;13.98;;;11.30;99.90;;;11.18;100.00;99492.59;5039469;28;20058;-88
2023/10/24 01:02:36;;;;;;;21.60;13.60;;;11.30;99.90;;;11.19;100.00;99488.78;5025848;28;20045;-87
2023/10/24 01:05:04;;;;;;;19.30;13.05;;;11.30;99.90;;;11.25;100.00;99485.06;5024028;28;20079;-88
2023/10/24 01:07:30;;;;;;;18.33;12.40;;;11.30;99.90;;;11.27;100.00;99487.53;5033141;28;20079;-88
2023/10/24 01:09:56;;;;;;;18.75;12.20;;;11.30;99.90;;;11.26;100.00;99492.16;5033086;28;20030;-87
2023/10/24 01:12:22;;;;;;;18.00;12.02;;;11.30;99.90;;;11.31;100.00;99503.16;5034475;28;20052;-86
2023/10/24 01:14:48;;;;;;;18.05;11.63;;;11.30;99.90;;;11.32;100.00;99509.47;5033933;28;20032;-87
2023/10/24 01:17:14;;;;;;;17.98;11.65;;;11.30;99.90;;;11.31;100.00;99500.44;5032786;28;20071;-87
2023/10/24 01:19:40;;;;;;;17.30;11.40;;;11.30;99.90;;;11.35;100.00;99501.59;5032554;28;20034;-88
2023/10/24 01:22:06;;;;;;;14.20;10.90;;;11.30;99.90;;;11.34;100.00;99505.38;5032771;28;20131;-88
2023/10/24 01:24:32;;;;;;;16.20;11.10;;;11.30;99.90;;;11.32;100.00;99507.53;5033960;28;20041;-87
2023/10/24 01:26:58;;;;;;;14.93;10.63;;;11.30;99.90;;;11.31;100.00;99511.34;5032672;28;20124;-89
2023/10/24 01:29:24;;;;;;;15.75;10.88;;;11.30;99.90;;;11.28;100.00;99498.22;5034005;28;20133;-88
2023/10/24 01:31:50;;;;;;;14.68;10.60;;;11.30;99.90;;;11.32;100.00;99507.53;5034536;28;20038;-89
2023/10/24 01:34:17;;;;;;;16.70;10.70;;;11.30;99.90;;;11.31;100.00;99507.81;5034402;28;20034;-89
2023/10/24 01:36:43;;;;;;;16.00;11.10;;;11.30;99.90;;;11.25;100.00;99504.16;5033664;28;20029;-88
2023/10/24 01:39:11;;;;;;;18.10;11.15;;;11.30;99.90;;;11.21;100.00;99497.56;5053329;28;20029;-88
2023/10/24 01:41:36;;;;;;;16.65;10.82;;;11.30;99.90;;;11.20;100.00;99504.09;5027403;28;20041;-88
2023/10/24 01:44:03;;;;;;;15.98;11.00;;;11.30;99.90;;;11.27;100.00;99484.78;5032456;28;20048;-88
2023/10/24 01:46:31;;;;;;;17.35;10.70;;;11.30;99.90;;;11.26;100.00;99486.72;5033633;28;20511;-88
2023/10/24 01:48:57;;;;;;;17.05;11.52;;;11.30;99.90;;;11.25;100.00;99467.84;5021514;28;20029;-88
2023/10/24 01:51:22;;;;;;;18.15;11.70;;;11.30;99.90;;;11.19;100.00;99473.22;5044871;28;20057;-88
2023/10/24 01:53:48;;;;;;;16.60;10.63;;;11.30;99.90;;;11.27;100.00;99455.59;5035380;28;20072;-87
2023/10/24 01:56:14;;;;;;;15.68;10.73;;;11.40;99.90;;;11.22;100.00;99483.63;5026417;28;20397;-87
2023/10/24 01:58:40;;;;;;;15.65;10.77;;;11.40;99.90;;;11.28;100.00;99470.91;5047789;28;20040;-88
2023/10/24 02:01:07;;;;;;;15.40;11.13;;;11.40;99.90;;;11.25;100.00;99479.59;5048128;28;20021;-87
2023/10/24 02:03:33;;;;;;;18.75;12.23;;;11.40;99.90;;;11.26;100.00;99486.72;5032535;28;20041;-87
2023/10/24 02:06:01;;;;;;;16.23;11.40;;;11.40;99.90;;;11.21;100.00;99486.63;5048017;28;20037;-87
2023/10/24 02:08:26;;;;;;;18.90;12.40;;;11.40;99.90;;;11.18;100.00;99479.75;5030602;28;20061;-87
2023/10/24 02:10:52;;;;;;;22.48;13.00;;;11.40;99.90;;;11.21;100.00;99478.44;5032018;28;20072;-87
2023/10/24 02:13:18;;;;;;;17.52;12.07;;;11.40;99.90;;;11.17;100.00;99467.19;5013617;28;20052;-86
2023/10/24 02:15:44;;;;;;;19.42;12.48;;;11.40;99.90;;;11.17;100.00;99466.38;5047452;28;20030;-86
2023/10/24 02:18:09;;;;;;;15.32;12.02;;;11.30;99.90;;;11.16;100.00;99454.63;5032589;28;20124;-86
2023/10/24 02:20:38;;;;;;;19.63;13.18;;;11.30;99.90;;;11.08;100.00;99436.75;5032507;28;20052;-85
2023/10/24 02:23:04;;;;;;;20.70;13.23;;;11.30;99.90;;;11.08;100.00;99431.28;5029257;28;20037;-86
2023/10/24 02:25:29;;;;;;;20.60;14.95;;;11.20;99.90;;;11.02;100.00;99407.75;5031774;28;20508;-84
2023/10/24 02:27:55;;;;;;;20.25;14.60;;;11.20;99.90;;;11.03;100.00;99405.84;5029978;28;20045;-85
2023/10/24 02:30:21;;;;;;;20.23;14.02;;;11.20;99.90;;;10.99;100.00;99385.56;5015319;28;20504;-86
2023/10/24 02:32:49;;;;;;;22.10;14.18;;;11.20;99.90;;;10.99;100.00;99363.75;5030504;28;20057;-86
2023/10/24 02:35:15;;;;;;;23.75;14.40;;;11.10;99.90;;;10.95;100.00;99357.97;5031352;28;20361;-86
2023/10/24 02:37:40;;;;;;;20.48;15.40;;;11.10;99.90;;;10.96;100.00;99365.09;5025196;28;20136;-86
2023/10/24 02:40:10;;;;;;;25.13;15.77;;;11.10;99.90;;;10.90;100.00;99341.53;5017418;28;20057;-86
2023/10/24 02:42:35;;;;;;;24.73;16.58;;;11.10;99.90;;;10.88;100.00;99333.59;5026278;28;20029;-86
2023/10/24 02:45:03;;;;;;;24.27;16.02;;;11.10;99.90;;;10.89;100.00;99324.31;5026514;28;20037;-85
2023/10/24 02:47:29;;;;;;;25.90;15.73;;;11.10;99.90;;;10.82;100.00;99303.75;5024544;28;20048;-85
2023/10/24 02:49:55;;;;;;;25.15;16.80;;;11.00;99.90;;;10.83;100.00;99305.41;5013803;28;20042;-86
2023/10/24 02:52:21;;;;;;;26.50;17.35;;;11.00;99.90;;;10.82;100.00;99292.84;5034865;28;20058;-85
2023/10/24 02:54:46;;;;;;;22.08;17.20;;;11.00;99.90;;;10.77;100.00;99277.25;5020063;28;20097;-85
2023/10/24 02:57:12;;;;;;;23.73;16.60;;;11.00;99.90;;;10.77;100.00;99261.69;5026791;28;20033;-83
2023/10/24 02:59:38;;;;;;;25.30;16.85;;;10.90;99.90;;;10.71;100.00;99257.25;5012078;28;20040;-87
2023/10/24 03:02:04;;;;;;;28.15;17.20;;;10.90;99.90;;;10.71;100.00;99251.78;5027727;28;20041;-87
2023/10/24 03:04:30;;;;;;;27.23;17.38;;;10.90;99.90;;;10.70;100.00;99241.97;5038320;28;20488;-87
2023/10/24 03:06:55;;;;;;;22.95;17.17;;;10.80;99.90;;;10.69;100.00;99228.56;5029285;28;20076;-86
2023/10/24 03:09:22;;;;;;;25.45;17.00;;;10.80;99.90;;;10.66;100.00;99210.81;5024866;28;20033;-87
2023/10/24 03:11:48;;;;;;;28.95;17.58;;;10.80;99.90;;;10.62;100.00;99220.59;5037095;28;20044;-86
2023/10/24 03:14:13;;;;;;;27.67;17.98;;;10.80;99.90;;;10.58;100.00;99216.69;5027660;28;20030;-85
2023/10/24 03:16:41;;;;;;;25.05;17.25;;;10.80;99.90;;;10.63;100.00;99228.50;5033738;28;20120;-86
2023/10/24 03:19:06;;;;;;;26.35;17.40;;;10.70;99.90;;;10.64;100.00;99229.34;5028893;28;20029;-87
2023/10/24 03:21:32;;;;;;;29.38;18.20;;;10.80;99.90;;;10.59;100.00;99218.34;5033108;28;20488;-86
2023/10/24 03:23:58;;;;;;;27.77;19.10;;;10.70;99.90;;;10.57;100.00;99217.75;5049881;28;20037;-86
2023/10/24 03:26:24;;;;;;;28.27;18.30;;;10.80;99.90;;;10.55;100.00;99226.22;5040523;28;20458;-86
2023/10/24 03:28:49;;;;;;;27.10;17.55;;;10.70;99.90;;;10.59;100.00;99219.19;5033647;28;20061;-87
2023/10/24 03:31:15;;;;;;;23.98;17.33;;;10.70;99.90;;;10.59;100.00;99205.53;5034274;28;20100;-87
2023/10/24 03:33:41;;;;;;;25.27;16.85;;;10.70;99.90;;;10.52;100.00;99220.44;5034378;28;20038;-86
2023/10/24 03:36:14;;;;;;;26.35;17.52;;;10.60;99.90;;;10.53;100.00;99239.28;5027731;28;20042;-86
2023/10/24 03:38:40;;;;;;;27.02;16.63;;;10.60;99.90;;;10.48;100.00;99220.94;5033719;28;20499;-87
2023/10/24 03:41:07;;;;;;;23.23;17.35;;;10.60;99.90;;;10.45;100.00;99239.69;5033751;28;20078;-86
2023/10/24 03:43:35;;;;;;;27.15;18.30;;;10.60;99.90;;;10.44;100.00;99243.50;5033876;28;20038;-86
2023/10/24 03:46:06;;;;;;;30.10;18.00;;;10.60;99.90;;;10.40;100.00;99242.31;5032914;28;20041;-86
2023/10/24 03:48:32;;;;;;;26.05;17.35;;;10.50;99.90;;;10.38;100.00;99226.22;5034167;28;20052;-86
2023/10/24 03:51:00;;;;;;;26.73;17.67;;;10.50;99.90;;;10.34;100.00;99236.78;5036047;28;20034;-85
2023/10/24 03:53:27;;;;;;;27.02;17.80;;;10.50;99.90;;;10.31;100.00;99239.19;5034182;28;20041;-84
2023/10/24 03:55:58;;;;;;;27.27;18.30;;;10.40;99.90;;;10.31;100.00;99250.06;5034724;28;20045;-87
2023/10/24 03:58:25;;;;;;;27.85;18.35;;;10.40;99.90;;;10.28;100.00;99245.13;5033868;28;20037;-86
2023/10/24 04:00:51;;;;;;;27.40;18.90;;;10.40;99.90;;;10.25;100.00;99253.81;5034196;28;20401;-87
2023/10/24 04:03:17;;;;;;;28.58;19.17;;;10.30;99.90;;;10.29;100.00;99260.41;5034054;28;20044;-87
2023/10/24 04:05:43;;;;;;;28.73;19.13;;;10.30;99.90;;;10.28;100.00;99247.84;5033479;28;20026;-85
2023/10/24 04:08:09;;;;;;;26.92;18.58;;;10.30;99.90;;;10.32;100.00;99233.50;5034012;28;20447;-87
2023/10/24 04:10:35;;;;;;;29.88;19.70;;;10.40;99.90;;;10.40;100.00;99234.13;5032333;28;20025;-87
2023/10/24 04:13:01;;;;;;;28.58;19.40;;;10.40;99.90;;;10.45;100.00;99231.50;5032733;28;20099;-87
2023/10/24 04:15:27;;;;;;;29.15;19.48;;;10.50;99.90;;;10.47;100.00;99240.25;5033938;28;20033;-87
2023/10/24 04:17:54;;;;;;;30.13;19.30;;;10.50;99.90;;;10.55;100.00;99237.13;5033422;28;20718;-87
2023/10/24 04:20:20;;;;;;;30.55;19.13;;;10.50;99.90;;;10.46;100.00;99239.44;5027001;28;20362;-87
2023/10/24 04:22:49;;;;;;;29.98;18.67;;;10.60;99.90;;;10.50;100.00;99232.41;5033394;28;20045;-86
2023/10/24 04:25:15;;;;;;;29.17;19.52;;;10.60;99.90;;;10.55;100.00;99228.09;5033756;28;20049;-87
2023/10/24 04:27:41;;;;;;;29.08;19.60;;;10.60;99.90;;;10.56;100.00;99227.88;5033760;28;20037;-87
2023/10/24 04:30:09;;;;;;;29.80;20.30;;;10.70;99.90;;;10.55;100.00;99222.66;5034105;28;20033;-87
2023/10/24 04:32:35;;;;;;;29.15;18.77;;;10.70;99.90;;;10.56;100.00;99216.97;5034260;28;20029;-87
2023/10/24 04:35:01;;;;;;;28.60;19.25;;;10.70;99.90;;;10.58;100.00;99224.88;5017102;28;20030;-87
2023/10/24 04:37:26;;;;;;;27.88;18.63;;;10.70;99.90;;;10.56;100.00;99229.75;5048156;28;20041;-87
2023/10/24 04:39:54;;;;;;;27.58;18.38;;;10.70;99.90;;;10.58;100.00;99211.22;5033729;28;20037;-87
2023/10/24 04:42:21;;;;;;;27.40;18.38;;;10.70;99.90;;;10.63;100.00;99223.03;5041649;28;20037;-88
2023/10/24 04:44:46;;;;;;;28.75;18.73;;;10.70;99.90;;;10.65;100.00;99239.97;5032609;28;20033;-88
2023/10/24 04:47:12;;;;;;;25.10;17.60;;;10.70;99.90;;;10.66;100.00;99249.00;5032526;28;20041;-87
2023/10/24 04:49:38;;;;;;;26.40;17.35;;;10.70;99.90;;;10.69;100.00;99248.50;5033622;28;20030;-87
2023/10/24 04:52:04;;;;;;;26.35;17.40;;;10.80;99.90;;;10.71;100.00;99259.97;5033498;28;20084;-88
2023/10/24 04:54:30;;;;;;;26.67;17.30;;;10.80;99.90;;;10.75;100.00;99274.75;5033438;28;20042;-88
2023/10/24 04:56:58;;;;;;;21.92;15.93;;;10.80;99.90;;;10.79;100.00;99275.91;5032949;28;20057;-88
2023/10/24 04:59:24;;;;;;;22.73;16.58;;;10.80;99.90;;;10.76;100.00;99270.13;5033416;28;20112;-88
2023/10/24 05:01:49;;;;;;;22.50;15.18;;;10.80;99.90;;;10.83;100.00;99272.66;5032238;28;20377;-85
2023/10/24 05:04:15;;;;;;;21.25;15.18;;;10.80;99.90;;;10.86;100.00;99277.63;5030457;28;20040;-85
2023/10/24 05:06:41;;;;;;;21.40;15.45;;;10.80;99.90;;;10.86;100.00;99291.25;5026413;28;20038;-85
2023/10/24 05:09:07;;;;;;;20.15;14.77;;;10.80;99.90;;;10.81;100.00;99283.84;5031000;28;20041;-86
2023/10/24 05:11:32;;;;;;;21.05;14.93;;;10.80;99.90;;;10.86;100.00;99296.72;5032238;28;20033;-84
2023/10/24 05:13:59;;;;;;;20.48;14.45;;;10.80;99.90;;;10.83;100.00;99294.50;5031936;28;20050;-87
2023/10/24 05:16:25;;;;;;;24.27;14.85;;;10.80;99.90;;;10.83;100.00;99303.50;5032249;28;20381;-86
2023/10/24 05:18:50;;;;;;;20.80;14.15;;;10.80;99.90;;;10.81;100.00;99294.75;5030483;28;20034;-88
2023/10/24 05:21:18;;;;;;;20.90;15.38;;;10.80;99.90;;;10.73;100.00;99285.09;5033336;28;20041;-91
2023/10/24 05:23:43;;;;;;;26.48;15.43;;;10.80;99.90;;;10.75;100.00;99282.94;5028910;28;20497;-89
2023/10/24 05:26:09;;;;;;;23.58;15.55;;;10.80;99.90;;;10.73;100.00;99278.81;5031527;28;20042;-88
2023/10/24 05:28:35;;;;;;;21.73;16.27;;;10.80;99.90;;;10.74;100.00;99262.19;5034298;28;20036;-90
2023/10/24 05:31:08;;;;;;;25.05;16.45;;;10.80;99.90;;;10.72;100.00;99268.97;5034703;28;20041;-87
2023/10/24 05:33:38;;;;;;;22.50;16.25;;;10.70;99.90;;;10.72;100.00;99274.41;5025304;28;20052;-88
2023/10/24 05:36:05;;;;;;;24.00;16.05;;;10.70;99.90;;;10.68;100.00;99255.03;5033450;28;20052;-88
2023/10/24 05:38:32;;;;;;;25.98;16.75;;;10.70;99.90;;;10.68;100.00;99256.91;5032619;28;20072;-89
2023/10/24 05:40:59;;;;;;;23.98;16.63;;;10.70;99.90;;;10.67;100.00;99253.38;5032560;28;20025;-88
2023/10/24 05:43:25;;;;;;;23.42;16.50;;;10.70;99.90;;;10.65;100.00;99248.16;5033075;28;20045;-90
2023/10/24 05:45:51;;;;;;;25.83;16.80;;;10.70;99.90;;;10.63;100.00;99231.22;5032758;28;20065;-86
2023/10/24 05:48:18;;;;;;;22.00;15.07;;;10.70;99.90;;;10.63;100.00;99238.59;5032631;28;20168;-88
2023/10/24 05:50:44;;;;;;;20.58;15.48;;;10.70;99.90;;;10.62;100.00;99220.59;5032692;28;20029;-90
2023/10/24 05:53:10;;;;;;;24.05;16.13;;;10.70;99.90;;;10.64;100.00;99221.97;5031361;28;20049;-89
2023/10/24 05:55:37;;;;;;;24.15;16.20;;;10.70;99.90;;;10.63;100.00;99233.16;5033565;28;20526;-89
2023/10/24 05:58:02;;;;;;;25.85;16.15;;;10.70;99.90;;;10.64;100.00;99227.41;5034027;28;20132;-89
2023/10/24 06:00:28;;;;;;;26.70;15.30;;;10.70;99.90;;;10.64;100.00;99229.34;5034281;28;20033;-89
2023/10/24 06:02:54;;;;;;;24.42;14.75;;;10.70;99.90;;;10.63;100.00;99238.59;5039397;28;20409;-89
2023/10/24 06:05:20;;;;;;;26.90;15.10;;;10.70;99.90;;;10.65;100.00;99233.72;5034329;28;20037;-90
2023/10/24 06:07:45;;;;;;;20.95;14.55;;;10.70;99.90;;;10.67;100.00;99223.38;5029942;28;20049;-86
2023/10/24 06:10:11;;;;;;;22.35;14.82;;;10.70;99.90;;;10.70;100.00;99216.56;5032810;28;20452;-90
2023/10/24 06:12:37;;;;;;;23.33;14.73;;;10.70;99.90;;;10.69;100.00;99210.31;5033295;28;20041;-89
2023/10/24 06:15:05;;;;;;;25.27;13.48;;;10.80;99.90;;;10.71;100.00;99207.31;5032665;28;20106;-90
2023/10/24 06:17:31;;;;;;;;;;;10.80;99.90;;;10.71;100.00;99190.94;5047901;28;20080;-86
2023/10/24 06:19:56;;;;;;;20.42;12.60;;;10.80;99.90;;;10.76;100.00;99194.56;5027713;28;19924;-90
2023/10/24 06:22:23;;;;;;;19.10;12.95;;;10.80;99.90;;;10.78;100.00;99195.13;5031351;28;20041;-86
2023/10/24 06:24:49;;;;;;;16.08;11.23;;;10.80;99.90;;;10.84;100.00;99217.88;5031176;28;20033;-86
2023/10/24 06:27:16;;;;;;;14.88;10.95;;;10.90;99.90;;;10.97;100.00;99226.72;5027163;28;20096;-88
2023/10/24 06:29:42;;;;;;;19.55;11.05;;;11.00;99.90;;;11.03;100.00;99237.47;5033172;28;20067;-87
2023/10/24 06:32:07;;;;;;;15.90;10.80;;;11.00;99.90;;;11.11;100.00;99249.00;5027298;28;20060;-87
2023/10/24 06:34:34;;;;;;;16.10;10.30;;;11.10;99.90;;;11.17;100.00;99272.56;5033838;28;20033;-87
2023/10/24 06:37:00;;;;;;;17.33;9.85;;;11.10;99.90;;;11.20;100.00;99291.97;5038544;28;20043;-87
2023/10/24 06:39:25;;;;;;;14.88;9.32;;;11.20;99.90;;;11.22;100.00;99308.13;5036276;28;20033;-89
2023/10/24 06:41:51;;;;;;;14.65;8.80;;;11.20;99.90;;;11.20;100.00;99340.31;5037427;28;20041;-92
2023/10/24 06:44:21;;;;;;;14.65;8.38;;;11.30;99.90;;;11.25;100.00;99350.44;5032381;28;20592;-88
2023/10/24 06:46:47;;;;;;;17.88;7.63;;;11.30;99.90;;;11.19;100.00;99364.03;5031814;28;20057;-87
2023/10/24 06:49:13;;;;;;;10.88;7.30;;;11.30;99.90;;;11.32;100.00;99381.13;5046367;28;20092;-89
2023/10/24 06:51:39;;;;;;;13.25;7.88;;;11.40;99.90;;;11.33;100.00;99397.25;5033735;28;20095;-87
2023/10/24 06:54:04;;;;;;;12.90;8.27;;;11.40;99.90;;;11.44;100.00;99419.25;5036784;28;20068;-87
2023/10/24 06:56:30;;;;;;;14.15;7.55;;;11.50;99.90;;;11.45;100.00;99418.97;5034328;28;20069;-87
2023/10/24 06:58:56;;;;;;;11.50;7.38;;;11.50;99.90;;;11.48;100.00;99423.94;5033428;28;20096;-86
2023/10/24 07:01:22;;;;;;;15.35;7.78;;;11.50;99.90;;;11.50;100.00;99440.09;5023949;28;20058;-86
2023/10/24 07:03:48;;;;;;;9.98;6.40;;;11.50;99.90;;;11.47;100.00;99443.31;5033973;28;20087;-85
2023/10/24 07:06:13;;;;;;;12.30;6.75;;;11.50;99.90;;;11.50;100.00;99448.28;5023626;28;20374;-87
2023/10/24 07:08:40;;;;;;;10.10;5.90;;;11.50;99.90;;;11.42;100.00;99441.34;5027803;28;20048;-87
2023/10/24 07:11:06;;;;;;;8.80;5.50;;;11.60;99.90;;;11.52;100.00;99438.72;5032825;28;20033;-87
2023/10/24 07:13:37;;;;;;;11.38;5.90;;;11.60;99.90;;;11.62;100.00;99439.97;5030353;28;20049;-87
2023/10/24 07:16:15;;;;;;;8.75;5.55;;;11.70;99.90;;;11.69;100.00;99443.31;5026638;28;20042;-90
2023/10/24 07:18:41;;;;;;;10.73;5.53;;;11.70;99.90;;;11.75;100.00;99449.69;5038532;28;20060;-90
2023/10/24 07:21:08;;;;;;;8.50;5.40;;;11.70;99.90;;;11.80;100.00;99460.69;5029059;28;20085;-89
2023/10/24 07:23:34;;;;;;;10.23;5.63;;;11.80;99.90;;;11.84;100.00;99456.34;5041756;28;20072;-90
2023/10/24 07:25:59;;;;;;;11.77;5.93;;;11.90;99.90;;;11.86;100.00;99462.38;5031847;28;20060;-89
2023/10/24 07:28:25;;;;;;;12.15;5.82;;;11.90;99.90;;;11.89;100.00;99466.53;5035257;28;20044;-89
2023/10/24 07:30:54;;;;;;;9.88;5.22;;;11.90;99.90;;;11.97;100.00;99457.06;5034308;28;20041;-88
2023/10/24 07:33:20;;;;;;;12.60;5.22;;;12.00;99.90;;;12.07;100.00;99468.13;5030209;28;20512;-83
2023/10/24 07:35:48;;;;;;;8.70;5.15;;;12.00;99.90;;;12.15;100.00;99481.34;5037064;28;20034;-89
2023/10/24 07:38:14;;;;;;;9.77;4.30;;;12.10;99.90;;;12.19;100.00;99473.47;5051223;28;20037;-90
2023/10/24 07:40:40;;;;;;;8.27;4.20;;;12.20;99.90;;;12.30;100.00;99477.13;5036117;28;20044;-90
2023/10/24 07:43:05;;;;;;;6.50;3.85;;;12.30;99.90;;;12.42;100.00;99475.06;5036002;28;20037;-90
2023/10/24 07:45:31;;;;;;;10.13;3.88;;;12.40;99.90;;;12.59;100.00;99483.16;5036553;28;20111;-90
2023/10/24 07:47:57;;;;;;;11.13;3.22;;;12.50;99.90;;;12.71;100.00;99490.41;5029963;28;20038;-89
2023/10/24 07:50:23;;;;;;;6.32;3.17;;;12.60;99.90;;;12.83;100.00;99501.19;5036260;28;20140;-90
2023/10/24 07:52:49;;;;;;;10.88;3.00;;;12.80;99.90;;;12.86;100.00;99519.81;5031793;28;20073;-87
2023/10/24 07:55:14;;;;;;;10.00;3.42;;;12.80;99.90;;;12.88;100.00;99523.97;5037679;28;20032;-90
2023/10/24 07:57:40;;;;;;;8.18;3.00;;;12.90;99.90;;;13.04;100.00;99529.56;5036458;28;20033;-90
2023/10/24 08:00:07;;;;;;;6.75;2.80;;;13.00;99.90;;;13.11;100.00;99540.31;5037253;28;20095;-90
2023/10/24 08:02:38;;;;;;;6.18;2.70;;;13.10;99.90;;;13.19;100.00;99542.56;5036301;28;20037;-90
2023/10/24 08:05:04;;;;;;;6.63;2.90;;;13.10;99.90;;;13.29;100.00;99545.38;5035355;28;20052;-91
2023/10/24 08:07:29;;;;;;;7.28;3.00;;;13.20;99.90;;;13.38;100.00;99537.50;5037703;28;20099;-91
2023/10/24 08:09:55;;;;;;;9.32;3.30;;;13.30;99.90;;;13.42;100.00;99535.91;5032241;28;20123;-91
2023/10/24 08:12:21;;;;;;;4.90;2.70;;;13.40;99.90;;;13.43;100.00;99531.25;5041338;28;20064;-91
2023/10/24 08:14:47;;;;;;;6.90;2.95;;;13.40;99.90;;;13.48;100.00;99534.88;5031093;28;20432;-92
2023/10/24 08:17:12;;;;;;;11.55;3.17;;;13.50;99.90;;;13.49;100.00;99539.25;5036510;28;20033;-91
2023/10/24 08:19:38;;;;;;;9.88;3.30;;;13.50;99.90;;;13.47;100.00;99538.69;5027392;28;20033;-91
2023/10/24 08:22:04;;;;;;;8.52;2.97;;;13.50;99.90;;;13.58;100.00;99541.50;5035718;28;20043;-92
2023/10/24 08:24:30;;;;;;;7.38;3.20;;;13.50;99.90;;;13.61;100.00;99555.50;5026418;28;20116;-90
2023/10/24 08:26:55;;;;;;;7.70;3.17;;;13.60;99.90;;;13.63;100.00;99561.53;5031955;28;20039;-88
2023/10/24 08:29:21;;;;;;;10.45;3.60;;;13.60;99.90;;;13.58;100.00;99552.47;5027160;28;20033;-87
2023/10/24 08:31:48;;;;;;;5.80;3.38;;;13.60;99.90;;;13.65;100.00;99534.69;5029929;28;20053;-89
2023/10/24 08:34:13;;;;;;;6.05;2.70;;;13.60;99.90;;;13.60;100.00;99542.91;5027134;28;20041;-88
2023/10/24 08:36:39;;;;;;;9.20;2.70;;;13.70;99.90;;;13.59;100.00;99544.00;5028259;28;20030;-88
2023/10/24 08:39:05;;;;;;;6.90;2.92;;;13.60;99.90;;;13.51;100.00;99544.47;5028784;28;20361;-88
2023/10/24 08:41:31;;;;;;;6.25;2.47;;;13.60;99.90;;;13.57;100.00;99559.03;5038849;28;20045;-89
2023/10/24 08:43:58;;;;;;;4.68;2.60;;;13.60;99.90;;;13.48;100.00;99555.94;5020575;28;20041;-87
2023/10/24 08:46:23;;;;;;;5.70;2.55;;;13.60;99.90;;;13.42;100.00;99548.75;5043381;28;20089;-87
2023/10/24 08:48:51;;;;;;;10.23;2.90;;;13.60;99.90;;;13.46;100.00;99564.44;5029126;28;20041;-92
2023/10/24 08:51:17;;;;;;;5.07;2.60;;;13.60;99.90;;;13.48;100.00;99566.91;5030168;28;20106;-87
2023/10/24 08:53:43;;;;;;;6.03;2.67;;;13.60;99.90;;;13.52;100.00;99562.53;5048983;28;20083;-89
2023/10/24 08:56:10;;;;;;;5.00;2.47;;;13.70;99.90;;;13.56;100.00;99563.69;5042213;28;20029;-89
2023/10/24 08:58:38;;;;;;;7.50;2.60;;;13.70;99.90;;;13.69;100.00;99561.56;5027194;28;20183;-90
2023/10/24 09:01:07;;;;;;;6.75;2.50;;;13.70;99.90;;;13.75;100.00;99561.34;5030971;28;20299;-89
2023/10/24 09:03:36;;;;;;;8.18;2.70;;;13.90;99.90;;;13.86;100.00;99567.72;5037896;28;20382;-89
2023/10/24 09:06:02;;;;;;;4.78;2.60;;;13.90;99.90;;;13.94;100.00;99569.16;5028406;28;20124;-89
2023/10/24 09:08:28;;;;;;;7.88;2.78;;;14.00;99.90;;;14.03;100.00;99574.94;5050611;28;20140;-90
2023/10/24 09:10:56;;;;;;;6.88;2.75;;;14.10;99.90;;;14.13;100.00;99569.50;5043369;28;20440;-91
2023/10/24 09:13:23;;;;;;;6.20;2.78;;;14.10;99.90;;;14.21;100.00;99579.97;5041993;28;20037;-91
2023/10/24 09:16:11;;;;;;;6.70;2.60;;;14.20;99.90;;;14.25;100.00;99569.28;5035301;28;20061;-90
2023/10/24 09:18:40;;;;;;;7.18;2.33;;;14.30;99.90;;;14.22;100.00;99569.84;5035194;28;20041;-91
2023/10/24 09:21:08;;;;;;;6.30;2.20;;;14.30;99.90;;;14.28;100.00;99573.41;5034790;28;20089;-90
2023/10/24 09:23:35;;;;;;;6.55;2.70;;;14.40;99.90;;;14.19;100.00;99559.38;5034859;28;20033;-89
2023/10/24 09:26:11;;;;;;;4.53;2.13;;;14.40;99.90;;;14.19;100.00;99545.66;5034280;28;20060;-90
2023/10/24 09:28:37;;;;;;;8.20;2.50;;;14.40;99.90;;;14.32;100.00;99552.56;5014509;28;20034;-90
2023/10/24 09:31:04;;;;;;;6.38;2.45;;;14.50;99.90;;;14.46;100.00;99558.41;5034207;28;20552;-89
2023/10/24 09:33:30;;;;;;;6.78;2.38;;;14.60;99.90;;;14.53;100.00;99559.78;5026035;28;20532;-90
2023/10/24 09:35:56;;;;;;;6.47;2.72;;;14.60;99.90;;;14.59;100.00;99566.09;5034150;28;20419;-92
2023/10/24 09:38:24;;;;;;;4.55;2.20;;;14.70;99.90;;;14.66;100.00;99591.38;5031068;28;20386;-90
2023/10/24 09:40:54;;;;;;;6.72;2.63;;;14.70;99.90;;;14.68;100.00;99597.41;5041010;28;20042;-90
2023/10/24 09:43:22;;;;;;;6.95;2.67;;;14.70;99.90;;;14.74;100.00;99592.81;5018935;28;20053;-88
2023/10/24 09:45:51;;;;;;;8.35;2.67;;;14.70;99.90;;;14.66;100.00;99587.81;5042849;28;20048;-89
2023/10/24 09:48:18;;;;;;;6.43;2.90;;;14.80;99.90;;;14.74;100.00;99600.22;5020801;28;20060;-87
2023/10/24 09:50:44;;;;;;;7.32;2.58;;;14.90;99.90;;;14.68;100.00;99604.84;5010997;28;20033;-87
2023/10/24 09:53:11;;;;;;;7.80;2.83;;;14.80;99.90;;;14.62;100.00;99606.75;5020227;28;20042;-86
2023/10/24 09:55:45;;;;;;;11.75;3.03;;;14.70;99.90;;;14.51;100.00;99602.31;5015250;28;20038;-84
2023/10/24 09:58:12;;;;;;;6.03;2.80;;;14.70;99.90;;;14.56;100.00;99596.84;5020631;28;20426;-85
2023/10/24 10:00:39;;;;;;;4.85;2.33;;;14.70;99.90;;;14.48;100.00;99598.19;5016088;28;20156;-84